^^

..:: Storico WU ::..




Lo storico viene creato da WUnderground con i dati che la stazione Meteomincio invia al loro server. L' aggiornamento viene fatto ogni 5 minuti circa, tuttavia possono esserci intervalli pi¨ ampi a causa di errori, interruzioni di servizio o problemi nell' invio tramite FTP.


Storico stazione MeteoMincio
Giorno Sommario per Marzo 03, 2022 Unità:  Inglese    Metrico   Entrambi
Giorno Settimana Mese Anno
  Max: Min: Media:
Temperatura: 57.4 °F 33.8 °F 45.5 °F
Dew Point: 37.4 °F 29.1 °F 33.6 °F
Umidità: 83% 44.2% 65%
Velocità vento: 6.3mph 0mph 1.9mph
Raffica: 18.4mph - -
Direzione- - South
Pressione: 30.1 in 29.9 in -
Precipitazioni: 0 in    
 
 
Tabulato Dati per Marzo 03, 2022
Ora Temperatura Dew Point Pressione Direzione Velocità vento Raffica Umidità Intensità pioggia (oraria) Info solare Situazione
00:04 41 °F 31.3 °F 30.1 in Calm     68.4% 0 in 0 W/m2
00:09 40.8 °F 31.5 °F 30.1 in Calm     68.8% 0 in 0 W/m2
00:14 40.6 °F 31.6 °F 30.1 in Calm     69.8% 0 in 0 W/m2
00:19 40.6 °F 31.5 °F 30.1 in Calm     69.7% 0 in 0 W/m2
00:24 40.6 °F 31.6 °F 30.1 in Calm     70.3% 0 in 0 W/m2
00:29 40.8 °F 31.8 °F 30.1 in Calm     70.2% 0 in 0 W/m2
00:34 41 °F 32 °F 30.1 in Calm     70.2% 0 in 0 W/m2
00:39 40.6 °F 32.2 °F 30.1 in Calm     71.5% 0 in 0 W/m2
00:44 40.5 °F 32.2 °F 30.1 in Calm     72.2% 0 in 0 W/m2
00:49 40.3 °F 32 °F 30.1 in Calm     72.5% 0 in 0 W/m2
00:54 40.1 °F 32 °F 30.1 in Calm     72.6% 0 in 0 W/m2
00:59 40.3 °F 32.2 °F 30.1 in Calm     72.8% 0 in 0 W/m2
01:04 40.3 °F 32.5 °F 30.1 in Calm     74.1% 0 in 0 W/m2
01:09 40.3 °F 32.7 °F 30.1 in Calm     74.7% 0 in 0 W/m2
01:14 40.1 °F 32.7 °F 30.1 in Calm     74.4% 0 in 0 W/m2
01:19 39.9 °F 32.4 °F 30.1 in Calm     74% 0 in 0 W/m2
01:24 40.1 °F 32.4 °F 30.1 in Calm     73.8% 0 in 0 W/m2
01:29 40.3 °F 32.2 °F 30.1 in Calm     73% 0 in 0 W/m2
01:34 40.1 °F 32 °F 30.1 in Calm     72.3% 0 in 0 W/m2
01:39 39.9 °F 31.6 °F 30.1 in SW 0.1 mph 3 mph 71.9% 0 in 0 W/m2
01:44 39.9 °F 31.3 °F 30.1 in West 1.7 mph 4 mph 71.4% 0 in 0 W/m2
01:49 40.1 °F 31.1 °F 30.1 in SW 2.4 mph 4 mph 70% 0 in 0 W/m2
01:54 40.1 °F 31.1 °F 30.1 in WSW 2.2 mph 4 mph 69.7% 0 in 0 W/m2
01:59 40.1 °F 30.9 °F 30.1 in West 2.1 mph 3.5 mph 69.5% 0 in 0 W/m2
02:04 40.3 °F 30.9 °F 30.1 in West 1.7 mph 3.5 mph 69% 0 in 0 W/m2
02:09 40.5 °F 30.7 °F 30.1 in West 1.6 mph 3 mph 68.2% 0 in 0 W/m2
02:14 40.3 °F 30.9 °F 30.1 in WNW 2.2 mph 3.5 mph 68.8% 0 in 0 W/m2
02:19 40.3 °F 30.7 °F 30.1 in WNW 1.4 mph 3.5 mph 68.8% 0 in 0 W/m2
02:24 40.1 °F 30.9 °F 30.1 in Calm   3 mph 69.2% 0 in 0 W/m2
02:29 39.9 °F 31.3 °F 30.1 in Calm     70.8% 0 in 0 W/m2
02:34 40.1 °F 31.3 °F 30.1 in Calm   1 mph 70.8% 0 in 0 W/m2
02:39 39.6 °F 31.6 °F 30.1 in WSW 1.6 mph 3.5 mph 72.8% 0 in 0 W/m2
02:44 39.2 °F 31.5 °F 30.1 in WSW 2.4 mph 3.5 mph 73.5% 0 in 0 W/m2
02:49 39.2 °F 31.3 °F 30.1 in WSW 2.7 mph 4 mph 73.1% 0 in 0 W/m2
02:54 39.2 °F 31.1 °F 30.1 in WSW 2.5 mph 4 mph 72.9% 0 in 0 W/m2
02:59 39.4 °F 31.3 °F 30.1 in WSW 0.9 mph 3.5 mph 72.8% 0 in 0 W/m2
03:04 39.6 °F 31.1 °F 30.1 in WNW 1 mph 3 mph 71.6% 0 in 0 W/m2
03:09 39.7 °F 31.3 °F 30.1 in NW 0.8 mph 2.3 mph 71.1% 0 in 0 W/m2
03:14 39.9 °F 31.1 °F 30.1 in Calm   2 mph 70.6% 0 in 0 W/m2
03:19 39.7 °F 31.3 °F 30.1 in WNW 1 mph 2.3 mph 71.2% 0 in 0 W/m2
03:24 39.7 °F 31.3 °F 30.1 in WSW 0.9 mph 2.3 mph 71.6% 0 in 0 W/m2
03:29 39.7 °F 31.3 °F 30.1 in NW 0.4 mph 2.3 mph 71.6% 0 in 0 W/m2
03:34 39.6 °F 31.3 °F 30.1 in Calm   2 mph 72% 0 in 0 W/m2
03:39 39.7 °F 31.5 °F 30.1 in NW 0.4 mph 2.3 mph 72.2% 0 in 0 W/m2
03:44 39.6 °F 31.3 °F 30.1 in NW 0.7 mph 2.3 mph 72% 0 in 0 W/m2
03:49 39.6 °F 31.3 °F 30.1 in NW 0.2 mph 2.3 mph 72% 0 in 0 W/m2
03:54 39.6 °F 31.6 °F 30.1 in NNE 0.5 mph 2.3 mph 72.8% 0 in 0 W/m2
03:59 39.6 °F 31.6 °F 30.1 in NNE 0.1 mph 2 mph 73% 0 in 0 W/m2
04:04 39.4 °F 31.5 °F 30.1 in Calm   1 mph 73.2% 0 in 0 W/m2
04:09 39 °F 31.6 °F 30.1 in Calm     74.8% 0 in 0 W/m2
04:14 38.8 °F 31.6 °F 30.1 in Calm     75% 0 in 0 W/m2
04:19 38.8 °F 31.6 °F 30.1 in NNE 0.1 mph 1.2 mph 75% 0 in 0 W/m2
04:24 38.8 °F 31.6 °F 30.1 in NNE 0.6 mph 1.2 mph 75% 0 in 0 W/m2
04:29 38.8 °F 31.6 °F 30.1 in NNE 0.3 mph 2.3 mph 75.3% 0 in 0 W/m2
04:34 38.8 °F 31.8 °F 30.1 in NNE 0.5 mph 2 mph 75.8% 0 in 0 W/m2
04:39 38.8 °F 31.8 °F 30.1 in NNE 0.2 mph 1.2 mph 75.6% 0 in 0 W/m2
04:44 38.5 °F 31.6 °F 30.1 in NNE 0.4 mph 1.2 mph 76% 0 in 0 W/m2
04:49 37.9 °F 30.9 °F 30.1 in ENE 1.6 mph 3.5 mph 75.5% 0 in 0 W/m2
04:54 37.4 °F 30.7 °F 30.1 in ENE 1 mph 3 mph 76.5% 0 in 0 W/m2
04:59 37 °F 30.7 °F 30.1 in ENE 0.5 mph 2.3 mph 77.4% 0 in 0 W/m2
05:04 36.9 °F 30.6 °F 30.1 in Calm   2 mph 78% 0 in 0 W/m2
05:09 36.9 °F 30.7 °F 30.1 in Calm     78% 0 in 0 W/m2
05:14 36.5 °F 30.2 °F 30.1 in Calm     78% 0 in 0 W/m2
05:19 36 °F 30 °F 30.1 in ESE 0.5 mph 2.3 mph 78.8% 0 in 0 W/m2
05:24 36 °F 30 °F 30.1 in SSE 1.5 mph 2.3 mph 79% 0 in 0 W/m2
05:29 36 °F 30 °F 30.1 in South 0.4 mph 2.3 mph 79% 0 in 0 W/m2
05:34 36 °F 30 °F 30.1 in ESE 0.9 mph 2.3 mph 79% 0 in 0 W/m2
05:39 36 °F 30 °F 30.1 in East 0.7 mph 2.3 mph 79% 0 in 0 W/m2
05:44 35.8 °F 30.2 °F 30.1 in ENE 1.2 mph 2.3 mph 79.7% 0 in 0 W/m2
05:49 35.8 °F 30.2 °F 30.1 in ENE 0.7 mph 2.3 mph 80% 0 in 0 W/m2
05:54 35.8 °F 30.2 °F 30.1 in ENE 0.1 mph 1.2 mph 80% 0 in 0 W/m2
05:59 35.6 °F 30 °F 30.1 in Calm   1 mph 80.4% 0 in 0 W/m2
06:04 35.1 °F 30 °F 30.1 in Calm     81% 0 in 0 W/m2
06:09 34.9 °F 29.7 °F 30.1 in Calm     81.1% 0 in 0 W/m2
06:14 34.7 °F 29.7 °F 30.1 in ENE 0.1 mph 2 mph 81.7% 0 in 0 W/m2
06:19 34.3 °F 29.5 °F 30.1 in ENE 1.6 mph 2.3 mph 82% 0 in 0 W/m2
06:24 34 °F 29.1 °F 30.1 in East 2.5 mph 4 mph 82.1% 0 in 0 W/m2
06:29 33.8 °F 29.3 °F 30.1 in West 1.7 mph 4 mph 83% 0 in 0 W/m2
06:34 34.2 °F 29.5 °F 30.1 in West 1.2 mph 3.5 mph 82.8% 0 in 0 W/m2
06:39 34.3 °F 29.7 °F 30.1 in West 0.4 mph 3 mph 82.4% 0 in 0 W/m2
06:44 34.7 °F 29.7 °F 30.1 in West 0.4 mph 1.2 mph 82% 0 in 0 W/m2
06:49 34.7 °F 29.8 °F 30.1 in West 0.9 mph 2.3 mph 81.8% 0 in 0 W/m2
06:54 34.7 °F 29.7 °F 30.1 in West 0.8 mph 2.3 mph 81.3% 0 in 0 W/m2
06:59 34.7 °F 29.8 °F 30.1 in WSW 0.7 mph 2.3 mph 81.9% 0 in 5 W/m2
07:04 34.5 °F 29.3 °F 30.1 in WSW 1.9 mph 3.5 mph 81.1% 0 in 7 W/m2
07:09 34.3 °F 29.1 °F 30.1 in WSW 1.9 mph 3.5 mph 81.3% 0 in 9 W/m2
07:14 34.3 °F 29.5 °F 30.1 in WSW 1.7 mph 3.5 mph 82% 0 in 12 W/m2
07:19 34.5 °F 29.5 °F 30.1 in WSW 1.5 mph 3 mph 81.5% 0 in 16 W/m2
07:24 34.9 °F 29.7 °F 30.1 in WSW 1.4 mph 2.3 mph 80.7% 0 in 19 W/m2
07:29 35.4 °F 29.8 °F 30.1 in WSW 0.2 mph 2 mph 80.2% 0 in 25 W/m2
07:34 35.4 °F 30 °F 30.1 in Calm   1 mph 80.6% 0 in 30 W/m2
07:39 35.4 °F 30.2 °F 30.1 in Calm     81% 0 in 35 W/m2
07:44 35.6 °F 30.4 °F 30.1 in Calm     81% 0 in 39 W/m2
07:49 35.6 °F 30.4 °F 30.1 in Calm     81.3% 0 in 44 W/m2
07:54 36 °F 30.7 °F 30.1 in Calm     81.3% 0 in 47 W/m2
07:59 36.5 °F 31.1 °F 30.1 in Calm     81% 0 in 56 W/m2
08:04 36.9 °F 31.3 °F 30.1 in Calm     80% 0 in 67 W/m2
08:09 37.2 °F 31.8 °F 30.1 in Calm     80.5% 0 in 77 W/m2
08:14 37.8 °F 32.2 °F 30.1 in NW 0.2 mph 2 mph 79.9% 0 in 91 W/m2
08:19 38.1 °F 32.2 °F 30.1 in NW 0.9 mph 3 mph 78.7% 0 in 156 W/m2
08:24 38.8 °F 32.7 °F 30.1 in North 1.4 mph 3.5 mph 78.8% 0 in 156 W/m2
08:29 39.2 °F 32.7 °F 30.1 in NNE 1.6 mph 3.5 mph 77.4% 0 in 111 W/m2
08:34 39 °F 32.5 °F 30.1 in NE 1.9 mph 3.5 mph 77.3% 0 in 100 W/m2
08:39 38.8 °F 32.9 °F 30.1 in NE 1.8 mph 3.5 mph 79.5% 0 in 93 W/m2
08:44 38.8 °F 33.3 °F 30.1 in NE 0.8 mph 3 mph 80% 0 in 243 W/m2
08:49 39.4 °F 33.6 °F 30.1 in NE 1.8 mph 3.5 mph 79.5% 0 in 251 W/m2
08:54 40.1 °F 34 °F 30.1 in NE 1.9 mph 3.5 mph 78.5% 0 in 257 W/m2
08:59 40.8 °F 34.5 °F 30.1 in NE 1.4 mph 3.5 mph 77.9% 0 in 227 W/m2
09:04 40.8 °F 34.5 °F 30.1 in NE 2 mph 3.5 mph 77.8% 0 in 153 W/m2
09:09 41 °F 34.7 °F 30.1 in ENE 1.6 mph 3.5 mph 78.4% 0 in 121 W/m2
09:14 41.2 °F 35.1 °F 30.1 in ENE 1.9 mph 3.5 mph 78.7% 0 in 253 W/m2
09:19 41.7 °F 35.2 °F 30.1 in ENE 2.3 mph 5 mph 78% 0 in 253 W/m2
09:24 42.3 °F 35.2 °F 30.1 in NE 1.2 mph 5 mph 76.1% 0 in 327 W/m2
09:29 42.6 °F 35.1 °F 30.1 in East 1.3 mph 5 mph 74.3% 0 in 338 W/m2
09:34 43 °F 34.9 °F 30.1 in ESE 1.7 mph 4 mph 73% 0 in 346 W/m2
09:39 43.9 °F 35.2 °F 30.1 in East 1 mph 4 mph 71.3% 0 in 359 W/m2
09:44 44.2 °F 34.7 °F 30.1 in ESE 0.7 mph 3.5 mph 69.3% 0 in 369 W/m2
09:49 44.6 °F 34.7 °F 30.1 in SE 1.2 mph 3.5 mph 67.8% 0 in 381 W/m2
09:54 45.3 °F 34 °F 30.1 in SE 0.4 mph 3 mph 64.5% 0 in 390 W/m2
09:59 46 °F 33.6 °F 30.1 in Calm   2 mph 61.8% 0 in 401 W/m2
10:04 46.8 °F 34 °F 30.1 in SE 0.5 mph 2 mph 60.9% 0 in 415 W/m2
10:09 47.3 °F 34.2 °F 30.1 in East 1.1 mph 3.5 mph 60.1% 0 in 422 W/m2
10:14 48 °F 33.4 °F 30.1 in SSE 1.6 mph 5 mph 57% 0 in 432 W/m2
10:19 48.6 °F 34 °F 30.1 in SE 2.2 mph 5 mph 56.9% 0 in 443 W/m2
10:24 48.9 °F 32 °F 30.1 in SSW 2.2 mph 5 mph 51.8% 0 in 452 W/m2
10:29 48.9 °F 30.2 °F 30.1 in SSW 2.4 mph 5 mph 48.6% 0 in 462 W/m2
10:34 48.9 °F 29.8 °F 30.1 in SW 2.5 mph 5 mph 47.7% 0 in 473 W/m2
10:39 49.1 °F 30.7 °F 30.1 in SSW 2.8 mph 5 mph 49.2% 0 in 480 W/m2
10:44 49.5 °F 31.1 °F 30.1 in South 2.3 mph 5 mph 49.3% 0 in 487 W/m2
10:49 49.8 °F 31.6 °F 30.1 in South 2.4 mph 5 mph 49.5% 0 in 496 W/m2
10:54 50 °F 32.4 °F 30.1 in SSW 2.6 mph 6 mph 50.6% 0 in 504 W/m2
10:59 50.2 °F 32 °F 30.1 in SE 1.4 mph 6 mph 49.5% 0 in 513 W/m2
11:04 50.2 °F 33.1 °F 30.1 in SW 1.5 mph 4 mph 51.5% 0 in 519 W/m2
11:09 50.7 °F 33.6 °F 30.1 in West 1.7 mph 5 mph 51.5% 0 in 527 W/m2
11:14 50.9 °F 33.6 °F 30.1 in SW 2.6 mph 5 mph 51.4% 0 in 529 W/m2
11:19 51.3 °F 34.5 °F 30.1 in SSW 3.2 mph 6 mph 52.5% 0 in 533 W/m2
11:24 51.4 °F 34.5 °F 30.1 in SW 2.1 mph 6 mph 52.2% 0 in 540 W/m2
11:29 51.6 °F 34.7 °F 30.1 in West 2.2 mph 5 mph 52.3% 0 in 548 W/m2
11:34 52 °F 34.5 °F 30.1 in West 2.4 mph 5 mph 51.4% 0 in 552 W/m2
11:39 52 °F 35.1 °F 30.1 in WSW 3.2 mph 5 mph 52.2% 0 in 555 W/m2
11:44 52 °F 35.1 °F 30.1 in West 3.2 mph 6 mph 52.6% 0 in 559 W/m2
11:49 52.5 °F 35.2 °F 30.1 in WNW 3.1 mph 6 mph 51.9% 0 in 573 W/m2
11:54 52.9 °F 35.8 °F 30.1 in SSW 3.7 mph 7 mph 52.1% 0 in 575 W/m2
11:59 52.7 °F 35.4 °F 30.1 in SW 2.7 mph 7 mph 51.7% 0 in 577 W/m2
12:04 53.6 °F 35.2 °F 30.1 in SW 4.5 mph 8.1 mph 49.6% 0 in 580 W/m2
12:09 53.8 °F 34.9 °F 30 in SW 4.7 mph 8.1 mph 48.8% 0 in 580 W/m2
12:14 54 °F 35.1 °F 30 in WSW 3.8 mph 8.1 mph 48.6% 0 in 584 W/m2
12:19 54 °F 35.2 °F 30 in WSW 3.9 mph 8 mph 49% 0 in 585 W/m2
12:24 53.4 °F 34.9 °F 30 in SW 4.8 mph 8.1 mph 49% 0 in 585 W/m2
12:29 54 °F 35.6 °F 30 in WSW 6 mph 10.4 mph 49.6% 0 in 585 W/m2
12:34 54.3 °F 36.1 °F 30 in WSW 3.7 mph 10 mph 50.4% 0 in 587 W/m2
12:39 54.7 °F 35.8 °F 30 in WSW 2.9 mph 8 mph 48.8% 0 in 587 W/m2
12:44 54.7 °F 35.8 °F 30 in WSW 5 mph 8.1 mph 49.1% 0 in 591 W/m2
12:49 54.5 °F 35.8 °F 30 in WSW 3.3 mph 8 mph 49.3% 0 in 591 W/m2
12:54 55 °F 36.5 °F 30 in WSW 5.8 mph 9.2 mph 49.6% 0 in 591 W/m2
12:59 54.5 °F 36.1 °F 30 in West 3.4 mph 9 mph 49.9% 0 in 589 W/m2
13:04 55.4 °F 37 °F 30 in WSW 6.3 mph 18.4 mph 49.9% 0 in 582 W/m2
13:09 55.8 °F 37 °F 30 in WSW 5.7 mph 18 mph 49.4% 0 in 582 W/m2
13:14 55.4 °F 36.5 °F 30 in WSW 4.7 mph 9 mph 48.9% 0 in 584 W/m2
13:19 55.2 °F 36.5 °F 30 in WSW 1.7 mph 8 mph 49.5% 0 in 580 W/m2
13:24 55.4 °F 36.7 °F 30 in West 4.3 mph 7 mph 49.5% 0 in 577 W/m2
13:29 55.6 °F 37 °F 30 in West 3.1 mph 7 mph 49.8% 0 in 571 W/m2
13:34 55.2 °F 36.5 °F 30 in SSW 2.2 mph 7 mph 49.4% 0 in 566 W/m2
13:39 55.4 °F 36.7 °F 30 in WNW 3.7 mph 7 mph 49.2% 0 in 561 W/m2
13:44 55.9 °F 37.2 °F 30 in WNW 3.3 mph 6.9 mph 49.3% 0 in 557 W/m2
13:49 56.5 °F 37.4 °F 30 in WSW 4.8 mph 10 mph 48.7% 0 in 557 W/m2
13:54 56.3 °F 36.9 °F 30 in West 5.7 mph 10.4 mph 47.9% 0 in 548 W/m2
13:59 56.1 °F 36.5 °F 30 in WNW 3.8 mph 10 mph 47.6% 0 in 545 W/m2
14:04 56.7 °F 36.9 °F 30 in SW 4.9 mph 8.1 mph 47.6% 0 in 536 W/m2
14:09 56.5 °F 36.5 °F 30 in SSW 4.9 mph 8.1 mph 47.3% 0 in 533 W/m2
14:14 55.9 °F 36.3 °F 30 in South 2.6 mph 8 mph 47.7% 0 in 527 W/m2
14:19 56.1 °F 36.3 °F 30 in SW 6 mph 10.4 mph 47.3% 0 in 519 W/m2
14:24 56.3 °F 36.3 °F 30 in WSW 5.8 mph 10 mph 47.1% 0 in 515 W/m2
14:29 56.5 °F 36.3 °F 30 in WSW 3.4 mph 8 mph 47% 0 in 510 W/m2
14:34 56.5 °F 36.3 °F 30 in WSW 4.3 mph 8 mph 46.4% 0 in 497 W/m2
14:39 56.1 °F 36.1 °F 30 in WSW 3 mph 8 mph 47% 0 in 489 W/m2
14:44 56.5 °F 36.1 °F 30 in WSW 5.4 mph 13 mph 46.6% 0 in 478 W/m2
14:49 56.8 °F 36 °F 30 in SW 5.8 mph 9.2 mph 45.3% 0 in 471 W/m2
14:54 57 °F 36.5 °F 30 in WSW 5.1 mph 9 mph 46.1% 0 in 457 W/m2
14:59 56.7 °F 36.1 °F 30 in West 2.7 mph 8 mph 46.1% 0 in 450 W/m2
15:04 56.7 °F 37 °F 30 in West 2.6 mph 8 mph 47.7% 0 in 436 W/m2
15:09 57 °F 36.5 °F 29.9 in WSW 5.7 mph 11.5 mph 46.2% 0 in 425 W/m2
15:14 56.8 °F 36.3 °F 29.9 in WSW 4.6 mph 12 mph 46.1% 0 in 418 W/m2
15:19 56.8 °F 36.3 °F 29.9 in WSW 3.6 mph 8 mph 45.9% 0 in 413 W/m2
15:24 57 °F 36.1 °F 29.9 in WSW 4 mph 8 mph 45.6% 0 in 403 W/m2
15:29 57 °F 35.8 °F 29.9 in SW 5.7 mph 9.2 mph 44.8% 0 in 392 W/m2
15:34 56.8 °F 35.8 °F 29.9 in SSW 4.4 mph 9 mph 45% 0 in 374 W/m2
15:39 57.2 °F 35.8 °F 29.9 in SW 4.7 mph 8.1 mph 44.6% 0 in 366 W/m2
15:44 56.8 °F 35.6 °F 29.9 in SSW 2.9 mph 8 mph 44.7% 0 in 357 W/m2
15:49 56.5 °F 35.8 °F 29.9 in SSW 2.4 mph 7 mph 45.6% 0 in 345 W/m2
15:54 57 °F 35.8 °F 29.9 in West 4 mph 7 mph 44.9% 0 in 334 W/m2
15:59 57 °F 35.6 °F 29.9 in WNW 2.5 mph 5 mph 44.5% 0 in 316 W/m2
16:04 57.4 °F 36 °F 29.9 in WSW 4.2 mph 7 mph 44.7% 0 in 306 W/m2
16:09 57 °F 35.6 °F 29.9 in WSW 4.1 mph 7 mph 44.3% 0 in 292 W/m2
16:14 56.8 °F 35.2 °F 29.9 in West 2.5 mph 7 mph 44.3% 0 in 276 W/m2
16:19 56.8 °F 35.4 °F 29.9 in WSW 2.4 mph 5 mph 44.7% 0 in 260 W/m2
16:24 56.8 °F 35.6 °F 29.9 in WSW 3.4 mph 6 mph 44.8% 0 in 246 W/m2
16:29 56.8 °F 35.6 °F 29.9 in WSW 3.4 mph 6 mph 44.8% 0 in 236 W/m2
16:34 56.5 °F 35.2 °F 29.9 in SW 3.3 mph 6 mph 44.8% 0 in 223 W/m2
16:39 56.5 °F 34.9 °F 29.9 in WSW 2.1 mph 5 mph 44.2% 0 in 211 W/m2
16:44 56.3 °F 35.6 °F 29.9 in SW 1.1 mph 5 mph 45.5% 0 in 195 W/m2
16:49 56.5 °F 35.8 °F 29.9 in SW 2.6 mph 4 mph 45.7% 0 in 179 W/m2
16:54 56.3 °F 35.4 °F 29.9 in SSW 1.4 mph 4 mph 45.3% 0 in 162 W/m2
16:59 56.1 °F 35.1 °F 29.9 in WSW 2.4 mph 4 mph 45% 0 in 144 W/m2
17:04 56.1 °F 34.9 °F 29.9 in West 2.4 mph 4 mph 44.8% 0 in 127 W/m2
17:09 55.9 °F 35.1 °F 29.9 in WSW 2.6 mph 4 mph 45.4% 0 in 114 W/m2
17:14 55.9 °F 34.9 °F 29.9 in West 2 mph 3.5 mph 45.3% 0 in 98 W/m2
17:19 55.8 °F 34.9 °F 29.9 in West 2 mph 3.5 mph 45.4% 0 in 83 W/m2
17:24 55.6 °F 35.1 °F 29.9 in West 1.6 mph 4 mph 45.8% 0 in 70 W/m2
17:29 55.6 °F 35.6 °F 29.9 in West 1.1 mph 3 mph 46.9% 0 in 58 W/m2
17:34 55.2 °F 35.6 °F 29.9 in West 1 mph 2.3 mph 47.5% 0 in 46 W/m2
17:39 55.4 °F 35.1 °F 29.9 in WNW 1.4 mph 2.3 mph 46.4% 0 in 37 W/m2
17:44 55 °F 35.6 °F 29.9 in WNW 0.8 mph 2.3 mph 47.8% 0 in 30 W/m2
17:49 54.5 °F 35.6 °F 29.9 in WNW 0.4 mph 2 mph 48.8% 0 in 21 W/m2
17:54 54 °F 35.8 °F 29.9 in WNW 0.2 mph 1.2 mph 50% 0 in 14 W/m2
17:59 53.1 °F 35.8 °F 29.9 in West 0.2 mph 1.2 mph 51.7% 0 in 11 W/m2
18:04 52.2 °F 36 °F 29.9 in West 0.6 mph 1.2 mph 53.9% 0 in 7 W/m2
18:09 51.8 °F 36 °F 29.9 in West 0.7 mph 2.3 mph 54.7% 0 in 5 W/m2
18:14 51.4 °F 36.1 °F 29.9 in West 0.9 mph 2.3 mph 55.6% 0 in 0 W/m2
18:19 50.9 °F 35.8 °F 29.9 in Calm   2 mph 56% 0 in 0 W/m2
18:24 50.7 °F 35.8 °F 29.9 in Calm     56.4% 0 in 0 W/m2
18:29 50.5 °F 36.1 °F 29.9 in Calm     57.5% 0 in 0 W/m2
18:34 50.2 °F 36.1 °F 29.9 in Calm     58.6% 0 in 0 W/m2
18:39 49.5 °F 35.6 °F 29.9 in Calm     59.1% 0 in 0 W/m2
18:44 48.9 °F 35.4 °F 29.9 in Calm     59.4% 0 in 0 W/m2
18:49 48.4 °F 35.1 °F 29.9 in Calm     59.9% 0 in 0 W/m2
18:54 48 °F 35.4 °F 29.9 in Calm     61.6% 0 in 0 W/m2
18:59 47.8 °F 35.4 °F 29.9 in Calm     61.8% 0 in 0 W/m2
19:04 47.7 °F 35.6 °F 29.9 in Calm     62.6% 0 in 0 W/m2
19:09 47.5 °F 35.6 °F 29.9 in Calm     63% 0 in 0 W/m2
19:14 47.7 °F 35.4 °F 29.9 in Calm     62.7% 0 in 0 W/m2
19:19 47.5 °F 35.4 °F 29.9 in SE 1 mph 6 mph 62.7% 0 in 0 W/m2
19:24 46.2 °F 34.5 °F 29.9 in ESE 3.6 mph 6 mph 63.5% 0 in 0 W/m2
19:29 45.9 °F 34.5 °F 29.9 in ESE 2.2 mph 6 mph 64.6% 0 in 0 W/m2
19:34 45.9 °F 34.5 °F 29.9 in ESE 1.6 mph 3 mph 64.5% 0 in 0 W/m2
19:39 45.7 °F 34.5 °F 29.9 in ESE 1.3 mph 2.3 mph 65% 0 in 0 W/m2
19:44 45.9 °F 34.9 °F 29.9 in ESE 1.6 mph 2.3 mph 65% 0 in 0 W/m2
19:49 46.2 °F 34.9 °F 29.9 in ESE 1.7 mph 3.5 mph 64.4% 0 in 0 W/m2
19:54 46.4 °F 34.9 °F 29.9 in ESE 1.6 mph 2.3 mph 63.9% 0 in 0 W/m2
19:59 46.4 °F 34.9 °F 29.9 in ESE 1.9 mph 3.5 mph 64% 0 in 0 W/m2
20:04 46.2 °F 35.1 °F 29.9 in ESE 1.6 mph 3.5 mph 64.6% 0 in 0 W/m2
20:09 45.7 °F 34.9 °F 29.9 in ESE 1.2 mph 3 mph 65.7% 0 in 0 W/m2
20:14 45.3 °F 34.5 °F 29.9 in ESE 1.1 mph 2.3 mph 65.9% 0 in 0 W/m2
20:19 45.5 °F 34.7 °F 29.9 in ESE 1 mph 2.3 mph 65.9% 0 in 0 W/m2
20:24 45 °F 34.3 °F 29.9 in ESE 1.3 mph 2.3 mph 66.3% 0 in 0 W/m2
20:29 44.8 °F 34.3 °F 29.9 in ESE 1.8 mph 3.5 mph 66.6% 0 in 0 W/m2
20:34 44.4 °F 34.2 °F 29.9 in ESE 2 mph 3 mph 67.2% 0 in 0 W/m2
20:39 44.2 °F 34.3 °F 29.9 in ESE 2.2 mph 3.5 mph 68% 0 in 0 W/m2
20:44 43.9 °F 34.3 °F 29.9 in ESE 2.3 mph 3.5 mph 68.7% 0 in 0 W/m2
20:49 43.7 °F 34.3 °F 29.9 in ESE 1.8 mph 3.5 mph 69% 0 in 0 W/m2
20:54 43.9 °F 34.5 °F 29.9 in ESE 2.2 mph 3.5 mph 69.5% 0 in 0 W/m2
20:59 44.1 °F 34.7 °F 29.9 in ESE 2.3 mph 3.5 mph 69.4% 0 in 0 W/m2
21:04 44.1 °F 34.9 °F 29.9 in ESE 2.5 mph 3.5 mph 70% 0 in 0 W/m2
21:09 43.9 °F 34.7 °F 29.9 in ESE 2.4 mph 3.5 mph 70.2% 0 in 0 W/m2
21:14 43.7 °F 35.1 °F 29.9 in ESE 2.5 mph 3.5 mph 71% 0 in 0 W/m2
21:19 43.9 °F 35.1 °F 29.9 in East 2.1 mph 3.5 mph 71% 0 in 0 W/m2
21:24 44.2 °F 35.6 °F 29.9 in East 2.1 mph 3.5 mph 71.5% 0 in 0 W/m2
21:29 44.4 °F 35.8 °F 29.9 in East 1.9 mph 3.5 mph 71.3% 0 in 0 W/m2
21:34 44.6 °F 35.6 °F 29.9 in East 1.8 mph 3.5 mph 70.6% 0 in 0 W/m2
21:39 44.6 °F 35.4 °F 29.9 in East 2 mph 3.5 mph 70% 0 in 0 W/m2
21:44 44.6 °F 35.6 °F 29.9 in East 1.7 mph 3 mph 70.5% 0 in 0 W/m2
21:49 44.6 °F 36 °F 29.9 in East 1.6 mph 2.3 mph 71.4% 0 in 0 W/m2
21:54 44.6 °F 36.5 °F 29.9 in East 1.6 mph 2.3 mph 72.9% 0 in 0 W/m2
21:59 44.2 °F 36.3 °F 29.9 in East 2.2 mph 3.5 mph 74% 0 in 0 W/m2
22:04 43.5 °F 35.8 °F 29.9 in East 1.9 mph 3.5 mph 74.2% 0 in 0 W/m2
22:09 43.3 °F 35.6 °F 29.9 in ENE 2.1 mph 3.5 mph 74.2% 0 in 0 W/m2
22:14 43.3 °F 35.6 °F 29.9 in ENE 2.3 mph 3.5 mph 74% 0 in 0 W/m2
22:19 43.3 °F 35.6 °F 29.9 in ENE 2.5 mph 3.5 mph 74% 0 in 0 W/m2
22:24 43.5 °F 35.4 °F 29.9 in ENE 2.4 mph 3.5 mph 73.1% 0 in 0 W/m2
22:29 43 °F 35.2 °F 29.9 in NE 2.6 mph 4 mph 73.8% 0 in 0 W/m2
22:34 42.6 °F 35.1 °F 29.9 in NE 4.4 mph 9 mph 74.4% 0 in 0 W/m2
22:39 42.6 °F 35.2 °F 29.9 in NE 5 mph 9.2 mph 75% 0 in 0 W/m2
22:44 42.6 °F 35.1 °F 29.9 in NE 4.6 mph 9 mph 74.6% 0 in 0 W/m2
22:49 42.4 °F 34.7 °F 29.9 in NE 4.3 mph 6 mph 74% 0 in 0 W/m2
22:54 42.1 °F 34.3 °F 29.9 in NE 4.5 mph 7 mph 74% 0 in 0 W/m2
22:59 41.7 °F 34.3 °F 29.9 in NE 4.6 mph 7 mph 74.7% 0 in 0 W/m2
23:04 41.5 °F 34.3 °F 29.9 in ENE 4.5 mph 8.1 mph 75.6% 0 in 0 W/m2
23:09 41.2 °F 34.3 °F 29.9 in ENE 6.3 mph 9.2 mph 76% 0 in 0 W/m2
23:14 41 °F 34.2 °F 29.9 in ENE 6.2 mph 9.2 mph 76.8% 0 in 0 W/m2
23:19 40.6 °F 34.2 °F 29.9 in ENE 4.5 mph 9 mph 77.8% 0 in 0 W/m2
23:24 40.3 °F 34.2 °F 29.9 in East 4 mph 6 mph 78.8% 0 in 0 W/m2
23:29 40.1 °F 34.2 °F 29.9 in ENE 4.2 mph 6 mph 79.3% 0 in 0 W/m2
23:34 40.1 °F 34.3 °F 29.9 in East 4.1 mph 6 mph 80% 0 in 0 W/m2
23:39 40.1 °F 34.5 °F 29.9 in East 4.4 mph 7 mph 80% 0 in 0 W/m2
23:44 40.3 °F 34.7 °F 29.9 in ENE 5.1 mph 8.1 mph 80% 0 in 0 W/m2
23:49 40.6 °F 34.9 °F 29.9 in ENE 4.4 mph 8 mph 80% 0 in 0 W/m2
23:54 40.6 °F 35.1 °F 29.9 in East 4.7 mph 7 mph 80% 0 in 0 W/m2
23:59 40.8 °F 35.1 °F 29.9 in ENE 5 mph 8.1 mph 80% 0 in 0 W/m2
Stazione Meteorologica MeteoMincio Rivalta s/M (MN)
Con i complimenti di Weather Underground - 4 mb


METEO PILLOLE
Il luogo più arido della Terra
Arica (65 m)- Cile
Da 50 anni, in media cadono appena 7 mm di pioggia all'anno.

Do NOT follow this link or you will be banned from the site!